Time;durP1;ratioP1;P1;durP2;ratioP2;P2;SDS_P1;SDS_P2;PMS_P1;PMS_P2;Temp;Humidity;BMP_temperature;BMP_pressure;BME280_temperature;BME280_humidity;BME280_pressure;Samples;Min_cycle;Max_cycle;Signal;HPM_P1;HPM_P2
2023/11/15 00:01:04;;;;;;;4.70;2.00;;;;;;;8.51;76.69;97523.13;105893;1257;72880;-26
2023/11/15 00:03:31;;;;;;;4.00;1.50;;;;;;;8.82;76.58;97526.73;105798;1257;73148;-26
2023/11/15 00:05:58;;;;;;;4.90;1.60;;;;;;;9.24;74.88;97521.92;105810;1257;73010;-26
2023/11/15 00:08:26;;;;;;;3.10;1.70;;;;;;;9.23;74.68;97522.55;105544;1255;61063;-26
2023/11/15 00:10:53;;;;;;;3.20;1.50;;;;;;;9.07;74.75;97521.55;105521;1255;61057;-26
2023/11/15 00:13:20;;;;;;;4.40;1.80;;;;;;;8.86;75.84;97522.67;105753;1253;73105;-26
2023/11/15 00:15:47;;;;;;;6.70;1.70;;;;;;;8.67;76.47;97521.44;105754;1259;74265;-26
2023/11/15 00:18:14;;;;;;;2.10;1.10;;;;;;;8.52;76.99;97515.48;105791;1256;72499;-26
2023/11/15 00:20:42;;;;;;;3.10;1.50;;;;;;;8.89;76.02;97507.98;105570;1257;61676;-27
2023/11/15 00:23:09;;;;;;;3.40;1.80;;;;;;;9.33;74.41;97508.83;105677;1259;61196;-27
2023/11/15 00:25:37;;;;;;;4.40;1.70;;;;;;;9.36;73.70;97508.06;105810;1255;73163;-27
2023/11/15 00:28:04;;;;;;;2.60;1.60;;;;;;;9.13;74.14;97502.20;105569;1259;74216;-27
2023/11/15 00:30:32;;;;;;;4.60;1.80;;;;;;;8.92;74.84;97503.63;105504;1259;72630;-26
2023/11/15 00:32:59;;;;;;;3.10;1.90;;;;;;;8.71;75.35;97501.86;105510;1253;61058;-24
2023/11/15 00:35:26;;;;;;;4.60;1.50;;;;;;;8.49;76.23;97501.20;105622;1258;61434;-26
2023/11/15 00:37:54;;;;;;;3.20;1.30;;;;;;;8.84;75.75;97499.20;105601;1258;72717;-26
2023/11/15 00:40:21;;;;;;;6.00;1.80;;;;;;;9.21;74.01;97500.18;105809;1257;74336;-25
2023/11/15 00:42:48;;;;;;;3.80;1.20;;;;;;;9.19;73.52;97498.54;105868;1253;72599;-26
2023/11/15 00:45:16;;;;;;;5.90;1.60;;;;;;;8.96;74.34;97493.53;105690;1252;61622;-26
2023/11/15 00:47:43;;;;;;;5.30;2.40;;;;;;;8.72;75.03;97491.17;105486;1259;61189;-26
2023/11/15 00:50:11;;;;;;;2.40;1.60;;;;;;;8.54;75.88;97495.67;105538;1259;73104;-26
2023/11/15 00:52:38;;;;;;;4.10;1.40;;;;;;;8.38;76.59;97497.04;105520;1253;74724;-26
2023/11/15 00:55:06;;;;;;;2.30;1.40;;;;;;;8.87;75.50;97495.80;105474;1253;72576;-26
2023/11/15 00:57:34;;;;;;;2.70;1.40;;;;;;;9.22;74.08;97490.41;105530;1253;61039;-27
2023/11/15 01:00:01;;;;;;;6.50;1.90;;;;;;;9.29;73.60;97483.65;105549;1254;61094;-26
2023/11/15 01:02:32;;;;;;;5.50;1.80;;;;;;;9.16;73.81;97484.98;105546;1254;73433;-26
2023/11/15 01:05:00;;;;;;;2.40;1.40;;;;;;;8.95;74.08;97477.98;105811;1254;74776;-26
2023/11/15 01:07:27;;;;;;;3.40;1.60;;;;;;;8.73;74.54;97481.23;105518;1254;73185;-26
2023/11/15 01:09:55;;;;;;;2.90;1.50;;;;;;;8.49;75.39;97478.67;105497;1254;62010;-26
2023/11/15 01:12:22;;;;;;;3.10;1.80;;;;;;;8.86;74.93;97475.63;105496;1258;61192;-26
2023/11/15 01:14:49;;;;;;;4.70;1.80;;;;;;;9.20;73.10;97476.43;105559;1253;73044;-26
2023/11/15 01:17:16;;;;;;;6.40;1.80;;;;;;;9.17;72.84;97478.46;105508;1258;74284;-26
2023/11/15 01:19:44;;;;;;;3.90;1.90;;;;;;;8.92;73.16;97477.44;105500;1258;72681;-26
2023/11/15 01:22:12;;;;;;;3.00;1.80;;;;;;;8.67;73.97;97473.65;105554;1256;61182;-26
2023/11/15 01:24:41;;;;;;;3.30;1.90;;;;;;;8.40;74.49;97475.54;105493;1258;61151;-26
2023/11/15 01:27:08;;;;;;;6.60;1.50;;;;;;;8.17;75.41;97471.73;105525;1257;73027;-26
2023/11/15 01:29:35;;;;;;;3.20;1.40;;;;;;;8.55;75.18;97471.16;105760;1266;75237;-26
2023/11/15 01:32:02;;;;;;;4.90;1.80;;;;;;;8.87;73.67;97466.67;105756;1259;71524;-26
2023/11/15 01:34:30;;;;;;;4.60;2.00;;;;;;;8.80;73.31;97463.73;105643;1257;61080;-26
2023/11/15 01:36:59;;;;;;;4.20;1.60;;;;;;;8.63;73.94;97465.39;105682;1254;61148;-26
2023/11/15 01:39:26;;;;;;;2.50;1.50;;;;;;;8.46;74.26;97465.31;105746;1259;73020;-26
2023/11/15 01:41:55;;;;;;;3.80;2.10;;;;;;;8.24;74.90;97458.97;105839;1259;74226;-26
2023/11/15 01:44:24;;;;;;;2.60;1.20;;;;;;;8.03;75.62;97457.35;105858;1256;72406;-26
2023/11/15 01:46:52;;;;;;;4.40;1.60;;;;;;;8.37;75.41;97457.48;105894;1257;61046;-26
2023/11/15 01:49:20;;;;;;;3.90;1.70;;;;;;;8.83;73.68;97457.05;105898;1256;61099;-26
2023/11/15 01:51:49;;;;;;;6.50;1.90;;;;;;;8.86;73.15;97453.34;105747;1253;71445;-26
2023/11/15 01:54:18;;;;;;;2.30;1.40;;;;;;;8.62;74.04;97449.10;105748;1253;74331;-26
2023/11/15 01:56:45;;;;;;;8.60;1.90;;;;;;;8.42;74.43;97448.29;105747;1254;71290;-26
2023/11/15 01:59:13;;;;;;;2.90;1.10;;;;;;;8.20;75.18;97449.63;105785;1259;61153;-26
2023/11/15 02:01:41;;;;;;;2.90;1.20;;;;;;;8.04;75.86;97450.19;105822;1256;61167;-26
2023/11/15 02:04:08;;;;;;;2.50;1.20;;;;;;;8.47;75.18;97448.63;105625;1259;73037;-26
2023/11/15 02:06:36;;;;;;;2.50;1.40;;;;;;;8.91;72.99;97451.55;105717;1260;74271;-26
2023/11/15 02:09:05;;;;;;;5.20;1.50;;;;;;;8.88;72.80;97449.61;105727;1257;72758;-26
2023/11/15 02:11:32;;;;;;;4.60;1.50;;;;;;;8.69;73.39;97445.84;105880;1259;61605;-26
2023/11/15 02:13:59;;;;;;;4.00;1.60;;;;;;;8.53;73.88;97444.75;105832;1258;61153;-26
2023/11/15 02:16:27;;;;;;;3.50;1.50;;;;;;;8.32;74.42;97441.75;105913;1257;72896;-26
2023/11/15 02:18:56;;;;;;;6.70;2.00;;;;;;;8.10;75.35;97442.73;105877;1257;74969;-26
2023/11/15 02:21:23;;;;;;;3.70;1.50;;;;;;;8.48;74.59;97445.03;105796;1254;72709;-26
2023/11/15 02:23:52;;;;;;;3.90;1.60;;;;;;;8.86;72.97;97448.60;105735;1253;61750;-26
2023/11/15 02:26:19;;;;;;;4.30;1.40;;;;;;;8.86;72.58;97450.16;105745;1254;61129;-26
2023/11/15 02:28:47;;;;;;;2.20;1.00;;;;;;;8.69;72.87;97449.41;105745;1254;72839;-26
2023/11/15 02:31:14;;;;;;;3.60;1.30;;;;;;;8.49;73.51;97452.72;105844;1257;74341;-26
2023/11/15 02:33:44;;;;;;;2.40;1.30;;;;;;;8.26;74.12;97455.48;105844;1254;72622;-26
2023/11/15 02:36:12;;;;;;;6.70;1.30;;;;;;;8.05;75.18;97459.58;105873;1259;63210;-26
2023/11/15 02:38:39;;;;;;;4.10;1.40;;;;;;;8.43;74.45;97459.02;105621;1259;61155;-26
2023/11/15 02:41:08;;;;;;;3.30;1.40;;;;;;;8.81;72.79;97455.88;105666;1254;72966;-26
2023/11/15 02:43:35;;;;;;;4.10;1.40;;;;;;;8.81;72.27;97462.85;105796;1257;74255;-26
2023/11/15 02:46:03;;;;;;;4.60;1.50;;;;;;;8.61;72.81;97468.94;105552;1260;72764;-26
2023/11/15 02:48:30;;;;;;;3.10;1.50;;;;;;;8.39;73.52;97467.77;105553;1255;61186;-26
2023/11/15 02:50:58;;;;;;;6.40;1.90;;;;;;;8.20;74.30;97468.35;105648;1258;61183;-26
2023/11/15 02:53:24;;;;;;;2.70;1.50;;;;;;;8.04;75.11;97472.29;105577;1264;73722;-26
2023/11/15 02:55:52;;;;;;;3.70;1.30;;;;;;;8.44;74.43;97473.59;105550;1259;74155;-26
2023/11/15 02:58:19;;;;;;;2.90;1.60;;;;;;;8.85;72.82;97473.97;105762;1257;73213;-26
2023/11/15 03:00:46;;;;;;;6.60;1.60;;;;;;;8.83;72.10;97474.67;105788;1257;61137;-26
2023/11/15 03:03:14;;;;;;;4.80;1.20;;;;;;;8.63;72.30;97478.70;105875;1254;62130;-26
2023/11/15 03:05:42;;;;;;;5.40;1.70;;;;;;;8.34;73.05;97476.30;105877;1257;72721;-26
2023/11/15 03:08:09;;;;;;;3.30;1.50;;;;;;;8.15;73.72;97481.23;105715;1260;74806;-26
2023/11/15 03:10:37;;;;;;;6.10;1.40;;;;;;;7.96;74.50;97485.71;105766;1254;73214;-26
2023/11/15 03:13:04;;;;;;;2.70;1.40;;;;;;;8.31;74.35;97488.39;105829;1254;61149;-26
2023/11/15 03:15:32;;;;;;;2.80;1.50;;;;;;;8.63;72.98;97491.56;105912;1257;61189;-26
2023/11/15 03:17:59;;;;;;;3.50;1.20;;;;;;;8.63;72.78;97491.92;105718;1254;73849;-26
2023/11/15 03:20:27;;;;;;;5.20;1.70;;;;;;;8.49;73.00;97496.35;105688;1258;74904;-26
2023/11/15 03:22:54;;;;;;;5.30;1.50;;;;;;;8.22;73.72;97496.32;105669;1257;72531;-26
2023/11/15 03:25:21;;;;;;;3.80;1.70;;;;;;;8.06;74.25;97498.73;105731;1252;61017;-26
2023/11/15 03:27:48;;;;;;;2.60;1.10;;;;;;;7.93;75.02;97500.08;105595;1257;61169;-26
2023/11/15 03:30:15;;;;;;;4.80;1.70;;;;;;;8.46;73.81;97502.70;105867;1256;73637;-26
2023/11/15 03:32:44;;;;;;;5.20;1.90;;;;;;;8.60;72.81;97509.14;105675;1259;74297;-26
2023/11/15 03:35:11;;;;;;;3.80;1.30;;;;;;;8.33;73.70;97511.91;105403;1257;71448;-26
2023/11/15 03:37:38;;;;;;;4.90;1.30;;;;;;;8.06;74.49;97513.45;105810;1259;61171;-26
2023/11/15 03:40:09;;;;;;;2.70;1.10;;;;;;;7.77;75.80;97520.73;105796;1257;61186;-26
2023/11/15 03:42:36;;;;;;;3.10;1.00;;;;;;;7.61;76.59;97517.80;105746;1254;73958;-28
2023/11/15 03:45:04;;;;;;;3.90;1.30;;;;;;;7.83;76.03;97516.25;105279;1260;74360;-26
2023/11/15 03:47:33;;;;;;;3.90;1.40;;;;;;;8.05;75.00;97515.35;105389;1259;72554;-26
2023/11/15 03:50:01;;;;;;;3.30;1.60;;;;;;;8.00;74.89;97513.29;105470;1254;61091;-26
2023/11/15 03:52:29;;;;;;;3.50;1.30;;;;;;;7.77;75.73;97513.37;105545;1258;61106;-26
2023/11/15 03:54:56;;;;;;;3.10;1.50;;;;;;;7.58;76.69;97513.22;105473;1254;74408;-26
2023/11/15 03:57:24;;;;;;;8.70;1.30;;;;;;;7.52;76.95;97511.39;105511;1258;74579;-26
2023/11/15 03:59:58;;;;;;;5.00;1.20;;;;;;;8.02;75.59;97512.08;105497;1257;73187;-26
2023/11/15 04:02:26;;;;;;;2.70;1.40;;;;;;;8.33;73.93;97509.61;105807;1257;61147;-26
2023/11/15 04:04:54;;;;;;;1.90;1.20;;;;;;;8.28;73.75;97506.48;105860;1254;61406;-26
2023/11/15 04:07:21;;;;;;;2.80;1.50;;;;;;;8.19;73.88;97505.81;105726;1254;73836;-26
2023/11/15 04:09:49;;;;;;;3.60;1.70;;;;;;;8.02;74.42;97504.95;105742;1257;74414;-26
2023/11/15 04:12:16;;;;;;;5.20;1.60;;;;;;;7.84;75.24;97500.39;105790;1257;73284;-26
2023/11/15 04:14:44;;;;;;;5.00;1.30;;;;;;;8.22;74.77;97495.63;105494;1254;61158;-26
2023/11/15 04:17:11;;;;;;;4.30;1.30;;;;;;;8.52;73.34;97493.33;105524;1265;61111;-26
2023/11/15 04:19:38;;;;;;;5.20;1.40;;;;;;;8.38;73.20;97485.63;105668;1257;73682;-26
2023/11/15 04:22:05;;;;;;;2.20;1.40;;;;;;;8.23;73.68;97479.70;105697;1257;74182;-27
2023/11/15 04:24:40;;;;;;;1.90;1.20;;;;;;;8.14;74.19;97481.80;105713;1252;72475;-26
2023/11/15 04:27:07;;;;;;;2.30;1.10;;;;;;;8.02;74.59;97481.15;105506;1257;61154;-27
2023/11/15 04:29:37;;;;;;;7.10;1.50;;;;;;;8.28;74.18;97479.15;105516;1257;61097;-26
2023/11/15 04:32:04;;;;;;;4.20;1.70;;;;;;;8.74;72.32;97477.61;105555;1254;73613;-26
2023/11/15 04:34:32;;;;;;;3.60;1.20;;;;;;;8.86;71.73;97475.81;105732;1255;74259;-26
2023/11/15 04:36:58;;;;;;;2.90;1.50;;;;;;;8.72;71.94;97476.32;105863;1253;73409;-26
2023/11/15 04:39:26;;;;;;;9.20;1.70;;;;;;;8.58;72.47;97478.85;105756;1256;61095;-26
2023/11/15 04:41:52;;;;;;;3.10;1.40;;;;;;;8.43;72.92;97480.64;105652;1257;61096;-26
2023/11/15 04:44:20;;;;;;;1.90;1.30;;;;;;;8.28;73.45;97474.82;105867;1257;73598;-26
2023/11/15 04:46:47;;;;;;;4.30;1.80;;;;;;;8.66;72.85;97477.42;105658;1254;74272;-26
2023/11/15 04:49:14;;;;;;;4.20;1.80;;;;;;;9.11;70.89;97480.21;105656;1254;72666;-26
2023/11/15 04:51:40;;;;;;;6.00;1.90;;;;;;;9.07;70.37;97479.65;105859;1254;61144;-26
2023/11/15 04:54:07;;;;;;;4.10;1.60;;;;;;;8.90;70.85;97476.98;105838;1257;61106;-26
2023/11/15 04:56:35;;;;;;;2.70;1.20;;;;;;;8.71;71.58;97480.55;105921;1254;73792;-26
2023/11/15 04:59:02;;;;;;;4.10;1.40;;;;;;;8.49;72.38;97479.22;105843;1257;73230;-26
2023/11/15 05:01:29;;;;;;;6.30;1.30;;;;;;;8.31;72.91;97479.02;105811;1257;72700;-26
2023/11/15 05:03:56;;;;;;;3.80;1.50;;;;;;;8.21;73.59;97479.63;105532;1257;62052;-26
2023/11/15 05:06:24;;;;;;;4.30;1.40;;;;;;;8.73;72.13;97476.16;105663;1258;61131;-26
2023/11/15 05:08:50;;;;;;;1.90;1.00;;;;;;;9.04;70.95;97479.05;105824;1257;73695;-26
2023/11/15 05:11:17;;;;;;;4.30;1.40;;;;;;;9.03;70.45;97483.45;105857;1256;74300;-26
2023/11/15 05:13:44;;;;;;;6.80;1.70;;;;;;;8.85;70.87;97480.26;105588;1254;72611;-26
2023/11/15 05:16:11;;;;;;;5.60;1.70;;;;;;;8.68;71.53;97483.81;105608;1253;61134;-26
2023/11/15 05:18:38;;;;;;;3.40;1.70;;;;;;;8.47;72.18;97483.76;105702;1257;61221;-26
2023/11/15 05:21:06;;;;;;;4.10;1.50;;;;;;;8.31;72.70;97479.61;105717;1254;74342;-26
2023/11/15 05:23:33;;;;;;;3.80;1.30;;;;;;;8.32;73.21;97479.42;105697;1257;74160;-26
2023/11/15 05:26:02;;;;;;;5.60;1.40;;;;;;;8.87;71.61;97480.55;105878;1254;72371;-26
2023/11/15 05:28:30;;;;;;;5.70;1.90;;;;;;;9.07;70.72;97482.53;105834;1257;61156;-25
2023/11/15 05:30:57;;;;;;;6.60;1.80;;;;;;;9.03;70.51;97485.70;105565;1255;61096;-26
2023/11/15 05:33:24;;;;;;;5.70;2.10;;;;;;;8.81;71.26;97489.23;105886;1254;73857;-26
2023/11/15 05:35:51;;;;;;;8.40;2.00;;;;;;;8.61;71.71;97486.71;105843;1257;74387;-26
2023/11/15 05:38:19;;;;;;;5.30;2.20;;;;;;;8.43;72.28;97487.38;105473;1254;72689;-26
2023/11/15 05:40:46;;;;;;;5.80;2.00;;;;;;;8.26;73.01;97491.59;105547;1252;61668;-26
2023/11/15 05:43:13;;;;;;;5.20;1.60;;;;;;;8.69;72.27;97490.81;105808;1257;61130;-26
2023/11/15 05:45:40;;;;;;;2.90;1.80;;;;;;;8.99;70.65;97486.15;105698;1260;73843;-26
2023/11/15 05:48:07;;;;;;;4.80;1.70;;;;;;;8.99;70.21;97491.47;105904;1252;74317;-26
2023/11/15 05:50:34;;;;;;;5.80;2.60;;;;;;;8.82;70.81;97493.48;105735;1254;72665;-26
2023/11/15 05:53:01;;;;;;;6.70;2.10;;;;;;;8.68;71.32;97492.27;105853;1257;61023;-26
2023/11/15 05:55:29;;;;;;;6.60;1.80;;;;;;;8.48;71.67;97493.63;105757;1258;61853;-25
2023/11/15 05:57:56;;;;;;;3.70;1.80;;;;;;;8.29;72.57;97497.06;105757;1257;74328;-27
2023/11/15 06:00:23;;;;;;;3.90;1.60;;;;;;;8.18;73.48;97499.60;105717;1256;74142;-26
2023/11/15 06:02:50;;;;;;;3.80;1.50;;;;;;;8.80;72.34;97501.70;105783;1254;72590;-26
2023/11/15 06:05:18;;;;;;;3.70;1.40;;;;;;;9.21;70.44;97503.48;105481;1257;63022;-26
2023/11/15 06:07:46;;;;;;;4.80;1.80;;;;;;;9.16;70.30;97506.23;105350;1261;61177;-26
2023/11/15 06:10:13;;;;;;;9.20;1.60;;;;;;;9.05;70.28;97509.91;105548;1254;74459;-26
2023/11/15 06:12:40;;;;;;;4.80;1.60;;;;;;;8.88;70.95;97512.63;105807;1254;74302;-26
2023/11/15 06:15:11;;;;;;;7.60;1.60;;;;;;;8.73;71.40;97516.90;105835;1253;72703;-26
2023/11/15 06:17:41;;;;;;;4.80;1.40;;;;;;;8.59;71.65;97514.23;105680;1254;61036;-25
2023/11/15 06:20:09;;;;;;;2.10;1.20;;;;;;;8.48;72.25;97508.48;105434;1259;61571;-25
2023/11/15 06:22:39;;;;;;;3.40;1.30;;;;;;;9.06;71.40;97506.67;105598;1254;72923;-25
2023/11/15 06:25:07;;;;;;;3.50;1.30;;;;;;;9.45;69.43;97506.29;105772;1256;75688;-26
2023/11/15 06:27:38;;;;;;;4.40;2.00;;;;;;;9.40;69.29;97503.31;105626;1259;72700;-26
2023/11/15 06:30:08;;;;;;;2.80;1.40;;;;;;;9.22;69.56;97500.11;105387;1258;61179;-26
2023/11/15 06:32:35;;;;;;;2.80;1.30;;;;;;;9.06;70.01;97499.63;105538;1253;61056;-26
2023/11/15 06:35:03;;;;;;;3.30;1.70;;;;;;;8.86;70.72;97496.06;105528;1254;73600;-25
2023/11/15 06:37:33;;;;;;;4.10;1.60;;;;;;;8.75;71.02;97498.31;105437;1254;74693;-26
2023/11/15 06:40:07;;;;;;;3.60;1.50;;;;;;;8.64;71.45;97498.38;105635;1252;72350;-26
2023/11/15 06:42:34;;;;;;;;;;;;;;;8.96;71.58;97497.65;105712;1253;61106;-26
2023/11/15 06:45:03;;;;;;;3.00;1.60;;;;;;;9.51;69.75;97496.52;105704;1257;61312;-26
2023/11/15 06:47:30;;;;;;;6.60;2.40;;;;;;;9.73;68.76;97499.47;105714;1259;73870;-26
2023/11/15 06:49:58;;;;;;;5.20;1.80;;;;;;;9.76;68.50;97499.84;105872;1255;74251;-26
2023/11/15 06:52:29;;;;;;;4.90;1.90;;;;;;;9.82;68.19;97501.71;105667;1257;71633;-26
2023/11/15 06:54:56;;;;;;;4.10;1.80;;;;;;;9.81;68.34;97501.06;105851;1254;61130;-26
2023/11/15 06:57:24;;;;;;;3.70;1.70;;;;;;;9.75;68.36;97502.95;105828;1257;61594;-26
2023/11/15 06:59:51;;;;;;;2.90;1.40;;;;;;;9.81;68.44;97505.02;105704;1254;73809;-26
2023/11/15 07:02:18;;;;;;;5.20;2.10;;;;;;;9.83;68.65;97502.08;105556;1253;74164;-26
2023/11/15 07:04:45;;;;;;;3.40;1.70;;;;;;;9.90;68.59;97494.09;105733;1253;73138;-26
2023/11/15 07:07:12;;;;;;;7.70;1.80;;;;;;;9.96;68.36;97496.95;105624;1254;61141;-27
2023/11/15 07:09:39;;;;;;;5.60;2.00;;;;;;;10.01;68.51;97499.23;105367;1254;61118;-26
2023/11/15 07:12:07;;;;;;;5.10;2.20;;;;;;;10.09;68.51;97496.86;105504;1257;72724;-26
2023/11/15 07:14:36;;;;;;;3.90;1.90;;;;;;;10.09;67.73;97493.58;105563;1253;74324;-26
2023/11/15 07:17:03;;;;;;;3.10;1.70;;;;;;;10.06;68.29;97496.83;105799;1253;72709;-26
2023/11/15 07:19:33;;;;;;;3.10;1.40;;;;;;;10.12;68.16;97494.98;105501;1253;61052;-26
2023/11/15 07:22:00;;;;;;;3.30;1.40;;;;;;;10.20;68.14;97493.42;105507;1257;61125;-26
2023/11/15 07:24:28;;;;;;;3.80;1.50;;;;;;;10.24;68.12;97498.38;105648;1254;74426;-26
2023/11/15 07:26:56;;;;;;;5.10;1.50;;;;;;;10.18;68.16;97489.09;105784;1254;74590;-26
2023/11/15 07:29:26;;;;;;;7.00;1.60;;;;;;;10.15;68.30;97494.14;105881;1257;72583;-26
2023/11/15 07:31:53;;;;;;;3.20;1.60;;;;;;;10.13;68.51;97498.98;105884;1253;61079;-26
2023/11/15 07:34:23;;;;;;;3.60;1.70;;;;;;;9.98;68.81;97494.46;105863;1257;61074;-25
2023/11/15 07:36:53;;;;;;;6.20;1.80;;;;;;;9.83;68.97;97493.26;105783;1254;74943;-26
2023/11/15 07:39:20;;;;;;;5.00;1.40;;;;;;;9.83;69.62;97498.68;105515;1257;74233;-26
2023/11/15 07:41:47;;;;;;;4.50;2.00;;;;;;;10.34;68.36;97505.38;105502;1254;71599;-26
2023/11/15 07:44:18;;;;;;;8.30;1.60;;;;;;;10.56;67.23;97500.18;105504;1254;61148;-26
2023/11/15 07:46:49;;;;;;;4.10;1.70;;;;;;;10.61;67.02;97497.57;105532;1257;61168;-26
2023/11/15 07:49:23;;;;;;;5.10;1.50;;;;;;;10.65;66.75;97498.83;105490;1254;73617;-27
2023/11/15 07:51:50;;;;;;;6.50;2.00;;;;;;;10.56;66.59;97501.02;105790;1252;74240;-25
2023/11/15 07:54:19;;;;;;;4.70;1.40;;;;;;;10.38;67.13;97500.99;105658;1257;73059;-26
2023/11/15 07:56:46;;;;;;;3.10;1.40;;;;;;;10.29;68.00;97507.64;105519;1254;61167;-26
2023/11/15 07:59:14;;;;;;;2.10;1.20;;;;;;;10.20;68.70;97503.70;105555;1257;61501;-26
2023/11/15 08:01:42;;;;;;;5.40;2.50;;;;;;;10.08;68.91;97501.45;105771;1254;73641;-26
2023/11/15 08:04:14;;;;;;;4.30;1.60;;;;;;;10.08;69.53;97499.40;105759;1253;73363;-26
2023/11/15 08:06:43;;;;;;;3.70;1.60;;;;;;;10.22;69.41;97496.91;105744;1257;71113;-26
2023/11/15 08:09:23;;;;;;;6.20;1.60;;;;;;;10.41;68.46;97496.98;105661;1253;61058;-26
2023/11/15 08:11:54;;;;;;;5.50;1.70;;;;;;;10.57;67.89;97490.12;105822;1256;61173;-26
2023/11/15 08:14:21;;;;;;;5.00;1.60;;;;;;;10.81;68.09;97487.95;105698;1253;73663;-27
2023/11/15 08:16:49;;;;;;;3.30;1.50;;;;;;;10.97;67.51;97481.84;105758;1257;74863;-26
2023/11/15 08:19:18;;;;;;;3.70;1.50;;;;;;;11.13;66.65;97488.55;105801;1253;72727;-27
2023/11/15 08:21:47;;;;;;;5.20;1.60;;;;;;;11.14;66.08;97484.73;105560;1253;61148;-25
2023/11/15 08:24:20;;;;;;;2.90;1.50;;;;;;;11.27;65.70;97487.85;105675;1257;61773;-26
2023/11/15 08:26:50;;;;;;;5.10;1.70;;;;;;;11.37;65.30;97483.45;105752;1253;74427;-26
2023/11/15 08:29:17;;;;;;;5.10;1.60;;;;;;;11.43;65.53;97486.46;105582;1257;74104;-26
2023/11/15 08:31:44;;;;;;;3.50;1.70;;;;;;;11.70;64.81;97485.98;105746;1257;72510;-26
2023/11/15 08:34:11;;;;;;;4.30;1.70;;;;;;;11.90;63.83;97485.33;105561;1254;60988;-27
2023/11/15 08:36:38;;;;;;;3.90;1.60;;;;;;;12.10;63.78;97485.11;105574;1254;61135;-29
2023/11/15 08:39:12;;;;;;;4.30;1.80;;;;;;;12.29;62.84;97485.54;105515;1253;74331;-25
2023/11/15 08:41:42;;;;;;;3.50;1.20;;;;;;;12.51;62.87;97486.70;105560;1253;75773;-28
2023/11/15 08:44:09;;;;;;;3.20;1.80;;;;;;;12.61;62.48;97481.23;105829;1254;72507;-27
2023/11/15 08:46:42;;;;;;;3.10;1.70;;;;;;;12.56;61.26;97478.63;105546;1257;61732;-27
2023/11/15 08:49:15;;;;;;;6.30;2.00;;;;;;;12.58;61.58;97478.38;105551;1253;61062;-27
2023/11/15 08:51:44;;;;;;;2.30;1.00;;;;;;;12.58;61.47;97477.54;105698;1253;74126;-26
2023/11/15 08:54:11;;;;;;;3.90;1.60;;;;;;;12.54;61.27;97485.54;105259;1253;74105;-25
2023/11/15 08:56:42;;;;;;;2.70;1.50;;;;;;;12.48;61.57;97479.25;105931;1253;72663;-25
2023/11/15 08:59:13;;;;;;;5.50;1.60;;;;;;;12.49;61.80;97478.91;105564;1253;62670;-27
2023/11/15 09:01:41;;;;;;;5.30;1.90;;;;;;;12.46;62.23;97483.84;105785;1257;61521;-27
2023/11/15 09:04:12;;;;;;;5.20;1.70;;;;;;;12.67;61.51;97481.54;105716;1260;73112;-25
2023/11/15 09:06:41;;;;;;;4.00;1.50;;;;;;;12.63;60.96;97477.81;105756;1254;75335;-25
2023/11/15 09:09:08;;;;;;;4.20;1.60;;;;;;;12.51;61.27;97478.02;105718;1254;72623;-25
2023/11/15 09:11:36;;;;;;;2.40;1.30;;;;;;;12.44;61.29;97477.45;105837;1253;61046;-25
2023/11/15 09:14:08;;;;;;;5.50;1.70;;;;;;;12.39;61.57;97479.83;105895;1257;61192;-26
2023/11/15 09:16:36;;;;;;;4.30;1.40;;;;;;;12.31;62.13;97486.34;105616;1254;73711;-26
2023/11/15 09:19:04;;;;;;;4.60;1.70;;;;;;;12.38;61.86;97481.21;105568;1253;74328;-26
2023/11/15 09:21:34;;;;;;;4.90;1.10;;;;;;;12.34;61.89;97485.83;105565;1253;72344;-26
2023/11/15 09:24:02;;;;;;;6.20;2.50;;;;;;;12.30;62.39;97487.65;105528;1254;61161;-26
2023/11/15 09:26:29;;;;;;;3.90;1.50;;;;;;;12.22;62.55;97488.94;105472;1259;61151;-25
2023/11/15 09:28:57;;;;;;;4.20;1.80;;;;;;;12.27;62.95;97490.96;105650;1257;74440;-26
2023/11/15 09:31:24;;;;;;;3.50;1.20;;;;;;;12.11;62.76;97480.40;105539;1254;73724;-27
2023/11/15 09:33:51;;;;;;;3.00;0.90;;;;;;;12.07;63.50;97486.78;105586;1253;72482;-27
2023/11/15 09:36:19;;;;;;;2.50;1.00;;;;;;;12.03;63.02;97485.27;105474;1254;61528;-26
2023/11/15 09:38:46;;;;;;;2.50;1.20;;;;;;;11.89;63.33;97487.91;105511;1254;61052;-27
2023/11/15 09:41:13;;;;;;;2.40;1.10;;;;;;;11.94;64.23;97494.54;105497;1254;73693;-26
2023/11/15 09:43:41;;;;;;;4.10;1.40;;;;;;;11.90;64.10;97488.98;105750;1254;74528;-27
2023/11/15 09:46:10;;;;;;;4.90;1.40;;;;;;;11.82;63.72;97485.73;105695;1253;72166;-26
2023/11/15 09:48:43;;;;;;;2.40;1.20;;;;;;;11.79;63.81;97488.48;105693;1253;61228;-27
2023/11/15 09:51:20;;;;;;;3.70;1.20;;;;;;;11.58;64.32;97482.81;105712;1257;61160;-25
2023/11/15 09:53:51;;;;;;;1.70;0.90;;;;;;;11.55;64.69;97484.27;105710;1253;74064;-27
2023/11/15 09:56:19;;;;;;;2.70;1.30;;;;;;;11.46;65.28;97490.81;105689;1257;76995;-26
2023/11/15 09:58:48;;;;;;;4.20;1.50;;;;;;;11.48;65.04;97493.41;105781;1257;72369;-27
2023/11/15 10:01:16;;;;;;;2.20;1.20;;;;;;;11.40;65.64;97489.27;105877;1257;61171;-27
2023/11/15 10:03:43;;;;;;;2.70;1.10;;;;;;;11.39;65.50;97490.05;105868;1257;61139;-27
2023/11/15 10:06:11;;;;;;;3.20;1.20;;;;;;;11.34;66.00;97486.23;105859;1253;74183;-28
2023/11/15 10:08:53;;;;;;;5.00;1.80;;;;;;;11.21;66.52;97490.64;105677;1253;74883;-26
2023/11/15 10:11:20;;;;;;;4.70;0.80;;;;;;;11.24;66.82;97490.51;105567;1252;71865;-27
2023/11/15 10:13:51;;;;;;;1.50;0.90;;;;;;;11.82;65.35;97488.34;105795;1257;61349;-26
2023/11/15 10:16:23;;;;;;;4.30;1.40;;;;;;;12.17;64.01;97486.69;105801;1254;61693;-27
2023/11/15 10:18:53;;;;;;;2.90;1.20;;;;;;;12.18;64.04;97487.85;105816;1252;74811;-26
2023/11/15 10:21:20;;;;;;;5.00;1.10;;;;;;;12.09;64.10;97487.61;105548;1257;74404;-26
2023/11/15 10:23:48;;;;;;;3.90;1.30;;;;;;;11.91;64.62;97486.40;105830;1253;73086;-26
2023/11/15 10:26:16;;;;;;;5.20;1.40;;;;;;;11.68;65.44;97485.98;105671;1257;61062;-27
2023/11/15 10:28:44;;;;;;;3.20;1.40;;;;;;;11.54;65.35;97486.39;105748;1257;61145;-27
2023/11/15 10:31:18;;;;;;;3.70;1.40;;;;;;;11.41;65.95;97490.91;105627;1253;75272;-27
2023/11/15 10:33:54;;;;;;;4.00;1.10;;;;;;;11.34;66.59;97493.36;105735;1254;74606;-29
2023/11/15 10:36:22;;;;;;;5.80;1.80;;;;;;;11.22;66.89;97493.83;105673;1254;73685;-27
2023/11/15 10:38:59;;;;;;;7.20;1.50;;;;;;;11.13;67.68;97494.27;105686;1253;61106;-25
2023/11/15 10:41:29;;;;;;;3.00;1.00;;;;;;;11.36;66.80;97486.16;105695;1253;61037;-28
2023/11/15 10:43:56;;;;;;;3.60;1.10;;;;;;;11.77;65.75;97493.02;105837;1254;74050;-26
2023/11/15 10:46:31;;;;;;;4.00;1.30;;;;;;;11.87;64.98;97496.14;105517;1257;74365;-27
2023/11/15 10:49:00;;;;;;;3.80;1.30;;;;;;;11.86;65.56;97497.61;105603;1253;72418;-27
2023/11/15 10:51:44;;;;;;;3.50;1.60;;;;;;;11.72;65.34;97489.46;105688;1253;61164;-26
2023/11/15 10:54:13;;;;;;;6.80;1.70;;;;;;;11.42;66.69;97490.66;103253;1258;3389740;-26
2023/11/15 10:56:41;;;;;;;3.40;1.10;;;;;;;11.30;67.15;97490.67;105736;1254;71569;-26
2023/11/15 10:59:10;;;;;;;3.50;1.40;;;;;;;11.15;67.69;97487.23;105708;1257;74739;-26
2023/11/15 11:01:37;;;;;;;2.30;1.00;;;;;;;11.01;68.28;97480.73;105863;1253;72517;-26
2023/11/15 11:04:11;;;;;;;2.20;1.00;;;;;;;11.03;68.72;97482.52;105894;1252;62541;-26
2023/11/15 11:06:45;;;;;;;2.30;1.10;;;;;;;11.55;67.21;97488.34;105892;1257;61507;-27
2023/11/15 11:09:21;;;;;;;2.30;1.30;;;;;;;11.79;66.14;97484.44;105703;1253;73562;-27
2023/11/15 11:12:05;;;;;;;3.10;1.30;;;;;;;11.77;65.94;97485.03;105632;1257;74435;-26
2023/11/15 11:14:33;;;;;;;2.90;1.00;;;;;;;11.60;66.10;97479.45;105591;1253;72681;-24
2023/11/15 11:17:02;;;;;;;2.00;1.10;;;;;;;11.49;66.56;97482.33;105644;1253;61147;-24
2023/11/15 11:19:30;;;;;;;2.50;1.20;;;;;;;11.28;67.14;97479.80;105689;1257;61880;-24
2023/11/15 11:22:05;;;;;;;3.40;1.50;;;;;;;11.27;67.22;97475.42;105472;1253;73148;-26
2023/11/15 11:24:42;;;;;;;3.00;1.00;;;;;;;11.15;67.44;97479.16;105811;1253;74826;-27
2023/11/15 11:27:13;;;;;;;3.20;1.00;;;;;;;11.20;68.44;97483.11;105591;1253;73855;-24
2023/11/15 11:29:48;;;;;;;3.60;0.90;;;;;;;11.85;66.52;97487.48;105499;1258;61514;-26
2023/11/15 11:32:17;;;;;;;2.40;1.20;;;;;;;12.15;65.28;97485.06;105755;1253;61117;-25
2023/11/15 11:35:07;;;;;;;2.10;1.10;;;;;;;12.15;64.62;97487.16;105635;1253;74733;-25
2023/11/15 11:37:46;;;;;;;3.80;1.40;;;;;;;12.01;64.86;97489.91;105757;1253;74253;-25